Terminal Aerodrome Forecast
Issued by NWS Shreveport, LA

Home | Current Version | Previous Version | Text Only | Print | Product List | Glossary On
Versions: 1 2 3 4 5 6 7 8 9 10 11 12 13 14 15 16 17 18 19 20 21 22 23 24 25 26 27 28
000
FTUS44 KSHV 062320
TAFELD
TAF
KELD 062320Z 0700/0724 07003KT P6SM FEW250
     FM071500 07009KT P6SM SCT250
     FM071800 06013G19KT P6SM OVC250
     FM072300 04011G18KT P6SM OVC100=

USA.gov is the U.S. government's official web portal to all federal, state and local government web resources and services.